sensor_id;sensor_type;location;lat;lon;timestamp;pressure;altitude;pressure_sealevel;temperature;humidity
72086;BME280;64750;52.134;5.424;2022-11-20T00:00:57;101596.69;;;4.79;59.79
72086;BME280;64750;52.134;5.424;2022-11-20T00:03:23;101601.03;;;4.78;59.45
72086;BME280;64750;52.134;5.424;2022-11-20T00:05:50;101591.56;;;4.75;59.66
72086;BME280;64750;52.134;5.424;2022-11-20T00:08:16;101595.97;;;4.73;59.60
72086;BME280;64750;52.134;5.424;2022-11-20T00:10:42;101587.31;;;4.71;59.55
72086;BME280;64750;52.134;5.424;2022-11-20T00:13:09;101576.94;;;4.70;59.79
72086;BME280;64750;52.134;5.424;2022-11-20T00:15:35;101583.03;;;4.69;59.72
72086;BME280;64750;52.134;5.424;2022-11-20T00:18:02;101575.25;;;4.67;59.18
72086;BME280;64750;52.134;5.424;2022-11-20T00:20:29;101586.53;;;4.68;59.90
72086;BME280;64750;52.134;5.424;2022-11-20T00:22:55;101579.63;;;4.65;59.66
72086;BME280;64750;52.134;5.424;2022-11-20T00:25:21;101582.28;;;4.64;59.62
72086;BME280;64750;52.134;5.424;2022-11-20T00:27:48;101575.34;;;4.63;59.56
72086;BME280;64750;52.134;5.424;2022-11-20T00:30:14;101584.97;;;4.60;60.01
72086;BME280;64750;52.134;5.424;2022-11-20T00:32:41;101583.25;;;4.59;59.68
72086;BME280;64750;52.134;5.424;2022-11-20T00:35:07;101585.03;;;4.57;59.89
72086;BME280;64750;52.134;5.424;2022-11-20T00:37:34;101581.63;;;4.55;59.62
72086;BME280;64750;52.134;5.424;2022-11-20T00:40:00;101572.09;;;4.54;59.83
72086;BME280;64750;52.134;5.424;2022-11-20T00:42:27;101581.66;;;4.52;60.10
72086;BME280;64750;52.134;5.424;2022-11-20T00:44:53;101575.63;;;4.52;59.54
72086;BME280;64750;52.134;5.424;2022-11-20T00:47:22;101576.56;;;4.49;59.81
72086;BME280;64750;52.134;5.424;2022-11-20T00:49:49;101575.72;;;4.47;60.36
72086;BME280;64750;52.134;5.424;2022-11-20T00:52:16;101576.63;;;4.46;59.89
72086;BME280;64750;52.134;5.424;2022-11-20T00:54:42;101570.56;;;4.46;60.02
72086;BME280;64750;52.134;5.424;2022-11-20T00:57:08;101563.66;;;4.43;59.71
72086;BME280;64750;52.134;5.424;2022-11-20T00:59:35;101557.66;;;4.41;60.25
72086;BME280;64750;52.134;5.424;2022-11-20T01:02:01;101557.66;;;4.39;60.25
72086;BME280;64750;52.134;5.424;2022-11-20T01:04:28;101558.56;;;4.38;60.11
72086;BME280;64750;52.134;5.424;2022-11-20T01:06:54;101561.19;;;4.37;59.86
72086;BME280;64750;52.134;5.424;2022-11-20T01:09:21;101555.19;;;4.35;60.00
72086;BME280;64750;52.134;5.424;2022-11-20T01:11:48;101554.31;;;4.34;59.91
72086;BME280;64750;52.134;5.424;2022-11-20T01:14:17;101559.56;;;4.33;59.88
72086;BME280;64750;52.134;5.424;2022-11-20T01:16:46;101561.34;;;4.31;60.34
72086;BME280;64750;52.134;5.424;2022-11-20T01:19:17;101557.03;;;4.30;60.19
72086;BME280;64750;52.134;5.424;2022-11-20T01:21:45;101556.16;;;4.29;59.73
72086;BME280;64750;52.134;5.424;2022-11-20T01:24:14;101549.28;;;4.26;59.69
72086;BME280;64750;52.134;5.424;2022-11-20T01:26:44;101539.75;;;4.25;59.84
72086;BME280;64750;52.134;5.424;2022-11-20T01:29:16;101538.97;;;4.23;60.32
72086;BME280;64750;52.134;5.424;2022-11-20T01:31:43;101545.06;;;4.22;59.77
72086;BME280;64750;52.134;5.424;2022-11-20T01:34:13;101553.75;;;4.21;60.26
72086;BME280;64750;52.134;5.424;2022-11-20T01:36:41;101545.13;;;4.19;59.93
72086;BME280;64750;52.134;5.424;2022-11-20T01:39:12;101539.94;;;4.18;60.10
72086;BME280;64750;52.134;5.424;2022-11-20T01:41:40;101547.78;;;4.16;60.24
72086;BME280;64750;52.134;5.424;2022-11-20T01:44:57;101541.78;;;4.14;59.89
72086;BME280;64750;52.134;5.424;2022-11-20T01:47:43;101549.59;;;4.14;60.05
72086;BME280;64750;52.134;5.424;2022-11-20T01:50:35;101546.16;;;4.12;59.96
72086;BME280;64750;52.134;5.424;2022-11-20T01:53:05;101540.09;;;4.10;60.25
72086;BME280;64750;52.134;5.424;2022-11-20T01:55:37;101537.59;;;4.07;59.99
72086;BME280;64750;52.134;5.424;2022-11-20T01:58:05;101535.88;;;4.06;60.04
72086;BME280;64750;52.134;5.424;2022-11-20T02:00:32;101529.81;;;4.05;60.45
72086;BME280;64750;52.134;5.424;2022-11-20T02:03:08;101530.75;;;4.03;59.62
72086;BME280;64750;52.134;5.424;2022-11-20T02:05:43;101534.22;;;4.02;59.92
72086;BME280;64750;52.134;5.424;2022-11-20T02:08:12;101538.59;;;4.01;60.01
72086;BME280;64750;52.134;5.424;2022-11-20T02:10:39;101538.59;;;4.00;60.12
72086;BME280;64750;52.134;5.424;2022-11-20T02:13:05;101530.00;;;3.98;59.95
72086;BME280;64750;52.134;5.424;2022-11-20T02:15:51;101534.31;;;3.97;59.75
72086;BME280;64750;52.134;5.424;2022-11-20T02:18:19;101534.34;;;3.96;59.92
72086;BME280;64750;52.134;5.424;2022-11-20T02:20:49;101526.59;;;3.94;59.95
72086;BME280;64750;52.134;5.424;2022-11-20T02:25:58;101526.63;;;3.91;59.95
72086;BME280;64750;52.134;5.424;2022-11-20T02:28:27;101531.00;;;3.90;60.31
72086;BME280;64750;52.134;5.424;2022-11-20T02:30:53;101532.75;;;3.88;60.09
72086;BME280;64750;52.134;5.424;2022-11-20T02:33:22;101531.06;;;3.87;60.07
72086;BME280;64750;52.134;5.424;2022-11-20T02:35:49;101521.56;;;3.86;59.77
72086;BME280;64750;52.134;5.424;2022-11-20T02:38:15;101521.56;;;3.86;59.73
72086;BME280;64750;52.134;5.424;2022-11-20T02:40:42;101520.69;;;3.86;59.86
72086;BME280;64750;52.134;5.424;2022-11-20T02:43:09;101512.97;;;3.83;59.93
72086;BME280;64750;52.134;5.424;2022-11-20T02:45:36;101516.44;;;3.82;60.15
72086;BME280;64750;52.134;5.424;2022-11-20T02:48:03;101504.31;;;3.81;60.07
72086;BME280;64750;52.134;5.424;2022-11-20T02:50:29;101513.88;;;3.80;59.88
72086;BME280;64750;52.134;5.424;2022-11-20T02:52:56;101517.34;;;3.79;59.81
72086;BME280;64750;52.134;5.424;2022-11-20T02:55:22;101511.31;;;3.78;59.62
72086;BME280;64750;52.134;5.424;2022-11-20T02:57:49;101509.63;;;3.76;59.59
72086;BME280;64750;52.134;5.424;2022-11-20T03:00:18;101503.59;;;3.74;59.68
72086;BME280;64750;52.134;5.424;2022-11-20T03:02:44;101500.19;;;3.72;59.60
72086;BME280;64750;52.134;5.424;2022-11-20T03:05:11;101497.59;;;3.72;60.15
72086;BME280;64750;52.134;5.424;2022-11-20T03:07:37;101494.13;;;3.71;59.95
72086;BME280;64750;52.134;5.424;2022-11-20T03:10:05;101493.31;;;3.69;60.01
72086;BME280;64750;52.134;5.424;2022-11-20T03:12:31;101489.88;;;3.67;59.98
72086;BME280;64750;52.134;5.424;2022-11-20T03:14:59;101484.72;;;3.66;60.29
72086;BME280;64750;52.134;5.424;2022-11-20T03:17:25;101493.41;;;3.65;60.16
72086;BME280;64750;52.134;5.424;2022-11-20T03:19:52;101486.47;;;3.64;60.02
72086;BME280;64750;52.134;5.424;2022-11-20T03:22:18;101496.91;;;3.62;59.98
72086;BME280;64750;52.134;5.424;2022-11-20T03:24:46;101480.47;;;3.60;59.83
72086;BME280;64750;52.134;5.424;2022-11-20T03:27:13;101481.34;;;3.60;60.00
72086;BME280;64750;52.134;5.424;2022-11-20T03:29:39;101482.31;;;3.56;60.36
72086;BME280;64750;52.134;5.424;2022-11-20T03:32:09;101482.31;;;3.55;60.33
72086;BME280;64750;52.134;5.424;2022-11-20T03:34:35;101488.41;;;3.55;60.42
72086;BME280;64750;52.134;5.424;2022-11-20T03:37:02;101480.59;;;3.55;59.55
72086;BME280;64750;52.134;5.424;2022-11-20T03:39:28;101478.88;;;3.54;60.02
72086;BME280;64750;52.134;5.424;2022-11-20T03:41:55;101481.47;;;3.54;59.88
72086;BME280;64750;52.134;5.424;2022-11-20T03:44:21;101482.34;;;3.53;59.83
72086;BME280;64750;52.134;5.424;2022-11-20T03:46:48;101483.25;;;3.52;60.00
72086;BME280;64750;52.134;5.424;2022-11-20T03:49:14;101469.44;;;3.50;59.71
72086;BME280;64750;52.134;5.424;2022-11-20T03:51:43;101463.38;;;3.50;59.96
72086;BME280;64750;52.134;5.424;2022-11-20T03:54:10;101473.75;;;3.50;59.96
72086;BME280;64750;52.134;5.424;2022-11-20T03:56:38;101474.63;;;3.50;60.26
72086;BME280;64750;52.134;5.424;2022-11-20T03:59:05;101465.13;;;3.49;60.30
72086;BME280;64750;52.134;5.424;2022-11-20T04:01:34;101470.28;;;3.51;60.13
72086;BME280;64750;52.134;5.424;2022-11-20T04:04:02;101470.31;;;3.49;59.58
72086;BME280;64750;52.134;5.424;2022-11-20T04:06:32;101462.53;;;3.49;59.62
72086;BME280;64750;52.134;5.424;2022-11-20T04:08:59;101462.53;;;3.49;59.63
72086;BME280;64750;52.134;5.424;2022-11-20T04:11:29;101459.03;;;3.50;59.62
72086;BME280;64750;52.134;5.424;2022-11-20T04:13:59;101452.97;;;3.50;59.74
72086;BME280;64750;52.134;5.424;2022-11-20T04:16:28;101457.31;;;3.49;60.12
72086;BME280;64750;52.134;5.424;2022-11-20T04:18:56;101456.44;;;3.49;59.78
72086;BME280;64750;52.134;5.424;2022-11-20T04:21:24;101448.66;;;3.50;60.06
72086;BME280;64750;52.134;5.424;2022-11-20T04:23:53;101450.38;;;3.50;60.23
72086;BME280;64750;52.134;5.424;2022-11-20T04:26:22;101445.13;;;3.51;60.39
72086;BME280;64750;52.134;5.424;2022-11-20T04:28:49;101443.44;;;3.50;59.96
72086;BME280;64750;52.134;5.424;2022-11-20T04:31:18;101458.13;;;3.51;59.57
72086;BME280;64750;52.134;5.424;2022-11-20T04:33:45;101459.03;;;3.50;59.88
72086;BME280;64750;52.134;5.424;2022-11-20T04:36:14;101452.13;;;3.49;59.67
72086;BME280;64750;52.134;5.424;2022-11-20T04:38:42;101454.72;;;3.49;59.76
72086;BME280;64750;52.134;5.424;2022-11-20T04:41:15;101444.34;;;3.49;60.22
72086;BME280;64750;52.134;5.424;2022-11-20T04:43:46;101438.22;;;3.52;60.21
72086;BME280;64750;52.134;5.424;2022-11-20T04:46:14;101432.16;;;3.51;60.03
72086;BME280;64750;52.134;5.424;2022-11-20T04:48:41;101435.63;;;3.52;59.68
72086;BME280;64750;52.134;5.424;2022-11-20T04:51:07;101439.94;;;3.51;59.99
72086;BME280;64750;52.134;5.424;2022-11-20T04:53:34;101433.91;;;3.51;60.05
72086;BME280;64750;52.134;5.424;2022-11-20T04:56:01;101438.22;;;3.52;59.64
72086;BME280;64750;52.134;5.424;2022-11-20T04:58:28;101426.94;;;3.51;59.94
72086;BME280;64750;52.134;5.424;2022-11-20T05:03:34;101424.34;;;3.51;60.00
72086;BME280;64750;52.134;5.424;2022-11-20T05:06:08;101433.06;;;3.50;59.62
72086;BME280;64750;52.134;5.424;2022-11-20T05:08:35;101434.75;;;3.51;60.31
72086;BME280;64750;52.134;5.424;2022-11-20T05:11:10;101429.53;;;3.51;59.79
72086;BME280;64750;52.134;5.424;2022-11-20T05:13:37;101422.59;;;3.53;60.03
72086;BME280;64750;52.134;5.424;2022-11-20T05:16:10;101420.88;;;3.52;59.49
72086;BME280;64750;52.134;5.424;2022-11-20T05:18:38;101425.19;;;3.53;60.10
72086;BME280;64750;52.134;5.424;2022-11-20T05:21:08;101428.66;;;3.54;59.32
72086;BME280;64750;52.134;5.424;2022-11-20T05:23:35;101423.41;;;3.55;59.44
72086;BME280;64750;52.134;5.424;2022-11-20T05:26:02;101420.81;;;3.55;59.43
72086;BME280;64750;52.134;5.424;2022-11-20T05:28:29;101410.41;;;3.55;59.93
72086;BME280;64750;52.134;5.424;2022-11-20T05:31:12;101393.94;;;3.55;59.46
72086;BME280;64750;52.134;5.424;2022-11-20T05:33:42;101394.81;;;3.55;59.87
72086;BME280;64750;52.134;5.424;2022-11-20T05:36:09;101404.34;;;3.55;60.03
72086;BME280;64750;52.134;5.424;2022-11-20T05:38:36;101389.66;;;3.54;60.17
72086;BME280;64750;52.134;5.424;2022-11-20T05:41:15;101390.50;;;3.54;59.30
72086;BME280;64750;52.134;5.424;2022-11-20T05:43:43;101392.22;;;3.55;59.20
72086;BME280;64750;52.134;5.424;2022-11-20T05:46:12;101390.50;;;3.54;59.10
72086;BME280;64750;52.134;5.424;2022-11-20T05:48:40;101397.47;;;3.54;59.27
72086;BME280;64750;52.134;5.424;2022-11-20T05:51:11;101403.53;;;3.53;59.35
72086;BME280;64750;52.134;5.424;2022-11-20T05:53:38;101410.47;;;3.52;59.70
72086;BME280;64750;52.134;5.424;2022-11-20T05:56:14;101415.66;;;3.52;59.52
72086;BME280;64750;52.134;5.424;2022-11-20T05:58:41;101411.34;;;3.51;59.28
72086;BME280;64750;52.134;5.424;2022-11-20T06:01:14;101415.66;;;3.52;59.51
72086;BME280;64750;52.134;5.424;2022-11-20T06:03:41;101419.16;;;3.51;59.21
72086;BME280;64750;52.134;5.424;2022-11-20T06:06:09;101419.19;;;3.50;59.05
72086;BME280;64750;52.134;5.424;2022-11-20T06:08:38;101425.25;;;3.50;59.17
72086;BME280;64750;52.134;5.424;2022-11-20T06:11:07;101423.53;;;3.49;59.23
72086;BME280;64750;52.134;5.424;2022-11-20T06:13:34;101430.50;;;3.47;58.83
72086;BME280;64750;52.134;5.424;2022-11-20T06:16:07;101430.50;;;3.47;59.46
72086;BME280;64750;52.134;5.424;2022-11-20T06:18:33;101429.66;;;3.47;58.81
72086;BME280;64750;52.134;5.424;2022-11-20T06:21:12;101437.50;;;3.45;59.14
72086;BME280;64750;52.134;5.424;2022-11-20T06:23:38;101433.19;;;3.44;59.14
72086;BME280;64750;52.134;5.424;2022-11-20T06:26:10;101435.78;;;3.44;59.53
72086;BME280;64750;52.134;5.424;2022-11-20T06:28:37;101426.19;;;3.46;59.77
72086;BME280;64750;52.134;5.424;2022-11-20T06:31:05;101426.19;;;3.46;59.11
72086;BME280;64750;52.134;5.424;2022-11-20T06:33:33;101432.25;;;3.47;59.62
72086;BME280;64750;52.134;5.424;2022-11-20T06:36:00;101426.19;;;3.46;59.51
72086;BME280;64750;52.134;5.424;2022-11-20T06:38:34;101428.81;;;3.44;59.45
72086;BME280;64750;52.134;5.424;2022-11-20T06:41:00;101426.25;;;3.43;59.03
72086;BME280;64750;52.134;5.424;2022-11-20T06:43:28;101422.84;;;3.41;59.00
72086;BME280;64750;52.134;5.424;2022-11-20T06:45:58;101435.03;;;3.39;59.32
72086;BME280;64750;52.134;5.424;2022-11-20T06:48:28;101436.75;;;3.38;59.28
72086;BME280;64750;52.134;5.424;2022-11-20T06:50:58;101427.25;;;3.37;58.96
72086;BME280;64750;52.134;5.424;2022-11-20T06:53:25;101435.06;;;3.37;58.96
72086;BME280;64750;52.134;5.424;2022-11-20T06:55:52;101430.78;;;3.33;58.65
72086;BME280;64750;52.134;5.424;2022-11-20T06:58:21;101418.03;;;3.22;58.03
72086;BME280;64750;52.134;5.424;2022-11-20T07:00:48;101417.28;;;3.17;57.53
72086;BME280;64750;52.134;5.424;2022-11-20T07:03:14;101412.09;;;3.16;57.37
72086;BME280;64750;52.134;5.424;2022-11-20T07:05:41;101414.75;;;3.14;57.64
72086;BME280;64750;52.134;5.424;2022-11-20T07:08:08;101409.53;;;3.14;57.48
72086;BME280;64750;52.134;5.424;2022-11-20T07:10:35;101416.47;;;3.14;57.66
72086;BME280;64750;52.134;5.424;2022-11-20T07:13:01;101414.75;;;3.12;58.01
72086;BME280;64750;52.134;5.424;2022-11-20T07:15:30;101413.91;;;3.12;58.18
72086;BME280;64750;52.134;5.424;2022-11-20T07:18:03;101400.97;;;3.10;58.21
72086;BME280;64750;52.134;5.424;2022-11-20T07:20:32;101406.19;;;3.09;58.50
72086;BME280;64750;52.134;5.424;2022-11-20T07:22:59;101411.38;;;3.09;57.95
72086;BME280;64750;52.134;5.424;2022-11-20T07:25:26;101413.09;;;3.08;58.47
72086;BME280;64750;52.134;5.424;2022-11-20T07:28:00;101410.53;;;3.07;57.90
72086;BME280;64750;52.134;5.424;2022-11-20T07:30:27;101405.38;;;3.05;58.22
72086;BME280;64750;52.134;5.424;2022-11-20T07:32:55;101398.47;;;3.04;58.50
72086;BME280;64750;52.134;5.424;2022-11-20T07:35:25;101399.31;;;3.05;58.23
72086;BME280;64750;52.134;5.424;2022-11-20T07:37:51;101398.47;;;3.04;58.47
72086;BME280;64750;52.134;5.424;2022-11-20T07:40:19;101395.91;;;3.03;58.59
72086;BME280;64750;52.134;5.424;2022-11-20T07:42:53;101389.84;;;3.02;58.45
72086;BME280;64750;52.134;5.424;2022-11-20T07:45:22;101395.91;;;3.03;58.43
72086;BME280;64750;52.134;5.424;2022-11-20T07:47:49;101401.13;;;3.01;58.61
72086;BME280;64750;52.134;5.424;2022-11-20T07:50:16;101407.22;;;3.00;58.54
72086;BME280;64750;52.134;5.424;2022-11-20T07:52:43;101410.66;;;3.01;59.26
72086;BME280;64750;52.134;5.424;2022-11-20T07:55:10;101400.31;;;2.99;58.36
72086;BME280;64750;52.134;5.424;2022-11-20T07:57:39;101406.34;;;3.00;59.15
72086;BME280;64750;52.134;5.424;2022-11-20T08:00:08;101413.28;;;2.99;58.78
72086;BME280;64750;52.134;5.424;2022-11-20T08:02:39;101404.63;;;2.99;58.99
72086;BME280;64750;52.134;5.424;2022-11-20T08:05:07;101407.22;;;2.99;59.06
72086;BME280;64750;52.134;5.424;2022-11-20T08:07:41;101403.81;;;2.97;59.16
72086;BME280;64750;52.134;5.424;2022-11-20T08:10:10;101396.88;;;2.97;58.82
72086;BME280;64750;52.134;5.424;2022-11-20T08:12:44;101393.41;;;2.98;58.70
72086;BME280;64750;52.134;5.424;2022-11-20T08:15:29;101383.84;;;2.99;59.33
72086;BME280;64750;52.134;5.424;2022-11-20T08:18:00;101384.75;;;2.98;59.25
72086;BME280;64750;52.134;5.424;2022-11-20T08:20:49;101392.56;;;2.98;59.76
72086;BME280;64750;52.134;5.424;2022-11-20T08:23:15;101381.28;;;2.97;59.31
72086;BME280;64750;52.134;5.424;2022-11-20T08:25:42;101376.94;;;2.99;59.19
72086;BME280;64750;52.134;5.424;2022-11-20T08:28:11;101379.53;;;2.99;59.05
72086;BME280;64750;52.134;5.424;2022-11-20T08:30:49;101382.97;;;3.00;59.31
72086;BME280;64750;52.134;5.424;2022-11-20T08:33:16;101377.78;;;3.00;59.44
72086;BME280;64750;52.134;5.424;2022-11-20T08:35:43;101382.97;;;3.00;59.76
72086;BME280;64750;52.134;5.424;2022-11-20T08:38:10;101386.44;;;3.00;59.42
72086;BME280;64750;52.134;5.424;2022-11-20T08:40:39;101387.25;;;3.02;59.89
72086;BME280;64750;52.134;5.424;2022-11-20T08:43:09;101389.00;;;3.02;59.84
72086;BME280;64750;52.134;5.424;2022-11-20T08:45:35;101389.00;;;3.02;59.68
72086;BME280;64750;52.134;5.424;2022-11-20T08:48:05;101387.22;;;3.04;59.67
72086;BME280;64750;52.134;5.424;2022-11-20T08:50:34;101385.53;;;3.03;59.58
72086;BME280;64750;52.134;5.424;2022-11-20T08:53:04;101387.28;;;3.01;59.55
72086;BME280;64750;52.134;5.424;2022-11-20T08:55:31;101382.06;;;3.02;59.92
72086;BME280;64750;52.134;5.424;2022-11-20T08:57:57;101376.88;;;3.02;59.98
72086;BME280;64750;52.134;5.424;2022-11-20T09:00:24;101370.81;;;3.02;60.10
72086;BME280;64750;52.134;5.424;2022-11-20T09:02:51;101375.13;;;3.03;59.99
72086;BME280;64750;52.134;5.424;2022-11-20T09:05:20;101372.50;;;3.04;60.44
72086;BME280;64750;52.134;5.424;2022-11-20T09:07:46;101375.06;;;3.06;60.25
72086;BME280;64750;52.134;5.424;2022-11-20T09:10:13;101374.22;;;3.04;60.54
72086;BME280;64750;52.134;5.424;2022-11-20T09:12:49;101374.22;;;3.04;60.72
72086;BME280;64750;52.134;5.424;2022-11-20T09:15:17;101370.75;;;3.05;60.87
72086;BME280;64750;52.134;5.424;2022-11-20T09:17:54;101367.28;;;3.06;60.44
72086;BME280;64750;52.134;5.424;2022-11-20T09:20:27;101364.63;;;3.09;61.02
72086;BME280;64750;52.134;5.424;2022-11-20T09:22:59;101359.44;;;3.09;60.74
72086;BME280;64750;52.134;5.424;2022-11-20T09:25:26;101357.69;;;3.09;61.28
72086;BME280;64750;52.134;5.424;2022-11-20T09:27:58;101345.53;;;3.10;61.17
72086;BME280;64750;52.134;5.424;2022-11-20T09:30:26;101344.69;;;3.09;60.70
72086;BME280;64750;52.134;5.424;2022-11-20T09:32:53;101334.34;;;3.08;60.97
72086;BME280;64750;52.134;5.424;2022-11-20T09:35:20;101330.88;;;3.07;61.55
72086;BME280;64750;52.134;5.424;2022-11-20T09:37:49;101332.63;;;3.07;61.52
72086;BME280;64750;52.134;5.424;2022-11-20T09:40:26;101333.38;;;3.12;61.64
72086;BME280;64750;52.134;5.424;2022-11-20T09:43:07;101334.22;;;3.14;62.01
72086;BME280;64750;52.134;5.424;2022-11-20T09:45:39;101324.72;;;3.13;60.96
72086;BME280;64750;52.134;5.424;2022-11-20T09:53:53;101318.53;;;3.19;61.99
72086;BME280;64750;52.134;5.424;2022-11-20T09:56:25;101324.59;;;3.19;62.30
72086;BME280;64750;52.134;5.424;2022-11-20T09:58:54;101318.47;;;3.20;62.00
72086;BME280;64750;52.134;5.424;2022-11-20T10:01:30;101313.28;;;3.20;62.11
72086;BME280;64750;52.134;5.424;2022-11-20T10:06:41;101301.16;;;3.21;61.73
72086;BME280;64750;52.134;5.424;2022-11-20T10:20:46;101279.38;;;3.26;62.03
72086;BME280;64750;52.134;5.424;2022-11-20T10:23:45;101290.56;;;3.30;62.34
72086;BME280;64750;52.134;5.424;2022-11-20T10:29:16;101269.81;;;3.28;62.82
72086;BME280;64750;52.134;5.424;2022-11-20T10:31:46;101265.47;;;3.29;62.94
72086;BME280;64750;52.134;5.424;2022-11-20T10:34:22;101263.94;;;3.20;63.22
72086;BME280;64750;52.134;5.424;2022-11-20T10:36:58;101252.63;;;3.23;63.28
72086;BME280;64750;52.134;5.424;2022-11-20T10:39:35;101246.50;;;3.25;63.36
72086;BME280;64750;52.134;5.424;2022-11-20T10:42:12;101247.25;;;3.31;63.53
72086;BME280;64750;52.134;5.424;2022-11-20T10:44:47;101246.31;;;3.35;63.32
72086;BME280;64750;52.134;5.424;2022-11-20T10:47:32;101245.38;;;3.37;63.69
72086;BME280;64750;52.134;5.424;2022-11-20T10:50:03;101241.03;;;3.38;63.72
72086;BME280;64750;52.134;5.424;2022-11-20T10:55:27;101226.22;;;3.41;63.09
72086;BME280;64750;52.134;5.424;2022-11-20T10:58:30;101213.28;;;3.38;63.77
72086;BME280;64750;52.134;5.424;2022-11-20T11:00:48;101213.19;;;3.43;63.31
72086;BME280;64750;52.134;5.424;2022-11-20T11:03:25;101214.00;;;3.45;63.56
72086;BME280;64750;52.134;5.424;2022-11-20T11:06:06;101209.66;;;3.45;63.89
72086;BME280;64750;52.134;5.424;2022-11-20T11:08:37;101210.44;;;3.49;63.81
72086;BME280;64750;52.134;5.424;2022-11-20T11:11:27;101193.97;;;3.50;63.90
72086;BME280;64750;52.134;5.424;2022-11-20T11:14:11;101195.66;;;3.51;63.91
72086;BME280;64750;52.134;5.424;2022-11-20T11:16:55;101176.56;;;3.52;64.03
72086;BME280;64750;52.134;5.424;2022-11-20T11:19:25;101178.22;;;3.55;63.80
72086;BME280;64750;52.134;5.424;2022-11-20T11:21:54;101171.25;;;3.57;63.79
72086;BME280;64750;52.134;5.424;2022-11-20T11:24:26;101168.75;;;3.54;64.42
72086;BME280;64750;52.134;5.424;2022-11-20T11:27:14;101156.56;;;3.56;64.08
72086;BME280;64750;52.134;5.424;2022-11-20T11:29:45;101153.03;;;3.58;64.51
72086;BME280;64750;52.134;5.424;2022-11-20T11:32:20;101152.13;;;3.59;64.47
72086;BME280;64750;52.134;5.424;2022-11-20T11:35:02;101148.59;;;3.62;64.17
72086;BME280;64750;52.134;5.424;2022-11-20T11:37:35;101141.66;;;3.63;64.27
72086;BME280;64750;52.134;5.424;2022-11-20T11:40:05;101134.72;;;3.63;64.77
72086;BME280;64750;52.134;5.424;2022-11-20T11:42:59;101122.66;;;3.60;65.08
72086;BME280;64750;52.134;5.424;2022-11-20T11:45:30;101120.00;;;3.62;64.83
72086;BME280;64750;52.134;5.424;2022-11-20T11:47:58;101129.56;;;3.61;65.64
72086;BME280;64750;52.134;5.424;2022-11-20T11:50:28;101126.97;;;3.61;65.40
72086;BME280;64750;52.134;5.424;2022-11-20T11:53:17;101119.97;;;3.64;65.08
72086;BME280;64750;52.134;5.424;2022-11-20T11:56:10;101113.88;;;3.65;65.17
72086;BME280;64750;52.134;5.424;2022-11-20T11:59:04;101110.38;;;3.66;65.47
72086;BME280;64750;52.134;5.424;2022-11-20T12:01:47;101112.09;;;3.67;65.41
72086;BME280;64750;52.134;5.424;2022-11-20T12:07:01;101102.44;;;3.72;65.80
72086;BME280;64750;52.134;5.424;2022-11-20T12:09:54;101095.47;;;3.72;66.64
72086;BME280;64750;52.134;5.424;2022-11-20T12:13:00;101077.22;;;3.74;66.07
72086;BME280;64750;52.134;5.424;2022-11-20T12:15:31;101069.38;;;3.75;66.39
72086;BME280;64750;52.134;5.424;2022-11-20T12:18:09;101074.69;;;3.72;66.99
72086;BME280;64750;52.134;5.424;2022-11-20T12:20:48;101075.44;;;3.76;67.09
72086;BME280;64750;52.134;5.424;2022-11-20T12:23:30;101075.34;;;3.79;67.22
72086;BME280;64750;52.134;5.424;2022-11-20T12:26:08;101074.41;;;3.82;67.41
72086;BME280;64750;52.134;5.424;2022-11-20T12:28:52;101071.69;;;3.86;66.85
72086;BME280;64750;52.134;5.424;2022-11-20T12:34:32;101064.69;;;3.88;67.62
72086;BME280;64750;52.134;5.424;2022-11-20T12:39:49;101059.31;;;3.94;67.31
72086;BME280;64750;52.134;5.424;2022-11-20T13:01:51;100999.66;;;4.18;68.33
72086;BME280;64750;52.134;5.424;2022-11-20T13:07:27;100980.34;;;4.25;68.65
72086;BME280;64750;52.134;5.424;2022-11-20T13:09:54;100973.41;;;4.26;69.07
72086;BME280;64750;52.134;5.424;2022-11-20T13:18:00;100961.03;;;4.33;68.64
72086;BME280;64750;52.134;5.424;2022-11-20T13:20:29;100954.13;;;4.32;69.18
72086;BME280;64750;52.134;5.424;2022-11-20T13:22:59;100956.72;;;4.32;69.64
72086;BME280;64750;52.134;5.424;2022-11-20T13:27:55;100941.81;;;4.37;69.65
72086;BME280;64750;52.134;5.424;2022-11-20T13:30:27;100938.25;;;4.41;69.36
72086;BME280;64750;52.134;5.424;2022-11-20T13:33:07;100941.53;;;4.46;69.48
72086;BME280;64750;52.134;5.424;2022-11-20T13:35:37;100933.75;;;4.44;70.00
72086;BME280;64750;52.134;5.424;2022-11-20T13:38:11;100936.22;;;4.49;69.54
72086;BME280;64750;52.134;5.424;2022-11-20T13:40:59;100943.97;;;4.51;69.53
72086;BME280;64750;52.134;5.424;2022-11-20T13:43:48;100941.38;;;4.51;69.98
72086;BME280;64750;52.134;5.424;2022-11-20T13:46:14;100930.19;;;4.49;70.62
72086;BME280;64750;52.134;5.424;2022-11-20T13:48:45;100912.78;;;4.49;70.78
72086;BME280;64750;52.134;5.424;2022-11-20T13:56:51;100905.69;;;4.54;70.77
72086;BME280;64750;52.134;5.424;2022-11-20T14:02:02;100916.03;;;4.56;71.03
72086;BME280;64750;52.134;5.424;2022-11-20T14:04:38;100915.97;;;4.57;70.71
72086;BME280;64750;52.134;5.424;2022-11-20T14:07:08;100912.41;;;4.60;71.01
72086;BME280;64750;52.134;5.424;2022-11-20T14:09:35;100911.47;;;4.63;70.83
72086;BME280;64750;52.134;5.424;2022-11-20T14:12:03;100913.16;;;4.64;71.31
72086;BME280;64750;52.134;5.424;2022-11-20T14:14:35;100897.47;;;4.67;70.70
72086;BME280;64750;52.134;5.424;2022-11-20T14:17:19;100876.50;;;4.70;70.92
72086;BME280;64750;52.134;5.424;2022-11-20T14:19:51;100872.13;;;4.72;70.79
72086;BME280;64750;52.134;5.424;2022-11-20T14:22:25;100859.09;;;4.72;70.73
72086;BME280;64750;52.134;5.424;2022-11-20T14:25:27;100842.59;;;4.71;70.88
72086;BME280;64750;52.134;5.424;2022-11-20T14:27:56;100826.16;;;4.71;71.33
72086;BME280;64750;52.134;5.424;2022-11-20T14:30:29;100830.50;;;4.70;71.16
72086;BME280;64750;52.134;5.424;2022-11-20T14:33:03;100843.47;;;4.72;71.21
72086;BME280;64750;52.134;5.424;2022-11-20T14:35:42;100856.50;;;4.72;71.10
72086;BME280;64750;52.134;5.424;2022-11-20T14:38:12;100852.94;;;4.74;71.34